createdAt,value
2023-05-12T00:00:21.718Z,24.96
2023-05-12T00:01:21.744Z,24.96
2023-05-12T00:02:21.820Z,24.95
2023-05-12T00:03:21.860Z,24.96
2023-05-12T00:04:21.780Z,24.95
2023-05-12T00:05:21.766Z,24.96
2023-05-12T00:06:21.781Z,24.95
2023-05-12T00:07:21.776Z,24.95
2023-05-12T00:08:21.839Z,24.96
2023-05-12T00:09:21.846Z,24.96
2023-05-12T00:10:21.909Z,24.95
2023-05-12T00:11:21.837Z,24.96
2023-05-12T00:12:21.868Z,24.95
2023-05-12T00:13:21.926Z,24.95
2023-05-12T00:14:21.887Z,24.95
2023-05-12T00:15:21.901Z,24.95
2023-05-12T00:16:21.915Z,24.96
2023-05-12T00:17:21.970Z,24.96
2023-05-12T00:18:21.970Z,24.96
2023-05-12T00:19:21.943Z,24.96
2023-05-12T00:20:22.227Z,24.96
2023-05-12T00:21:21.962Z,24.96
2023-05-12T00:22:21.999Z,24.96
2023-05-12T00:23:21.984Z,24.96
2023-05-12T00:24:22.035Z,24.95
2023-05-12T00:25:21.983Z,24.95
2023-05-12T00:26:22.051Z,24.95
2023-05-12T00:27:21.994Z,24.94
2023-05-12T00:28:22.059Z,24.95
2023-05-12T00:29:22.052Z,24.94
2023-05-12T00:30:22.209Z,24.95
2023-05-12T00:31:22.103Z,24.95
2023-05-12T00:32:22.116Z,24.95
2023-05-12T00:33:22.036Z,24.95
2023-05-12T00:34:22.038Z,24.95
2023-05-12T00:35:22.057Z,24.95
2023-05-12T00:36:22.070Z,24.94
2023-05-12T00:37:22.080Z,24.95
2023-05-12T00:38:22.054Z,24.94
2023-05-12T00:39:22.090Z,24.94
2023-05-12T00:40:22.140Z,24.94
2023-05-12T00:41:22.081Z,24.94
2023-05-12T00:42:22.081Z,24.94
2023-05-12T00:43:22.066Z,24.94
2023-05-12T00:44:22.091Z,24.94
2023-05-12T00:45:22.089Z,24.94
2023-05-12T00:46:22.140Z,24.94
2023-05-12T00:47:22.097Z,24.94
2023-05-12T00:48:22.097Z,24.94
2023-05-12T00:49:22.135Z,24.94
2023-05-12T00:50:22.338Z,24.94
2023-05-12T00:51:22.143Z,24.94
2023-05-12T00:52:22.138Z,24.94
2023-05-12T00:53:22.127Z,24.93
2023-05-12T00:54:22.118Z,24.94
2023-05-12T00:55:22.113Z,24.94
2023-05-12T00:56:22.119Z,24.94
2023-05-12T00:57:22.146Z,24.94
2023-05-12T00:58:22.167Z,24.94
2023-05-12T00:59:22.139Z,24.93
2023-05-12T01:00:22.316Z,24.93
2023-05-12T01:01:22.193Z,24.94
2023-05-12T01:02:22.227Z,24.94
2023-05-12T01:03:22.299Z,24.93
2023-05-12T01:04:22.285Z,24.93
2023-05-12T01:05:22.264Z,24.93
2023-05-12T01:06:22.298Z,24.93
2023-05-12T01:07:22.344Z,24.94
2023-05-12T01:08:22.318Z,24.94
2023-05-12T01:09:22.315Z,24.93
2023-05-12T01:10:22.470Z,24.93
2023-05-12T01:11:22.310Z,24.94
2023-05-12T01:12:22.284Z,24.93
2023-05-12T01:13:22.314Z,24.94
2023-05-12T01:14:22.324Z,24.94
2023-05-12T01:15:22.305Z,24.93
2023-05-12T01:16:22.308Z,24.93
2023-05-12T01:17:22.385Z,24.94
2023-05-12T01:18:22.411Z,24.92
2023-05-12T01:19:22.336Z,24.93
2023-05-12T01:20:22.458Z,24.93
2023-05-12T01:21:22.319Z,24.93
2023-05-12T01:22:22.305Z,24.93
2023-05-12T01:23:22.329Z,24.93
2023-05-12T01:24:22.360Z,24.93
2023-05-12T01:25:22.331Z,24.93
2023-05-12T01:26:22.334Z,24.92
2023-05-12T01:27:22.343Z,24.93
2023-05-12T01:28:22.358Z,24.93
2023-05-12T01:29:22.421Z,24.93
2023-05-12T01:30:22.558Z,24.92
2023-05-12T01:31:22.385Z,24.92
2023-05-12T01:32:22.365Z,24.93
2023-05-12T01:33:22.403Z,24.92
2023-05-12T01:34:22.354Z,24.92
2023-05-12T01:35:22.377Z,24.91
2023-05-12T01:36:22.343Z,24.92
2023-05-12T01:37:22.389Z,24.92
2023-05-12T01:38:22.414Z,24.92
2023-05-12T01:39:22.509Z,24.91
2023-05-12T01:40:22.731Z,24.91
2023-05-12T01:41:22.622Z,24.92
2023-05-12T01:42:22.688Z,24.92
2023-05-12T01:43:22.718Z,24.92
2023-05-12T01:44:22.768Z,24.92
2023-05-12T01:45:22.725Z,24.92
2023-05-12T01:46:22.778Z,24.91
2023-05-12T01:47:22.788Z,24.92
2023-05-12T01:48:22.727Z,24.92
2023-05-12T01:49:22.713Z,24.92
2023-05-12T01:50:22.735Z,24.92
2023-05-12T01:51:22.778Z,24.92
2023-05-12T01:52:22.788Z,24.91
2023-05-12T01:53:22.761Z,24.92
2023-05-12T01:54:22.759Z,24.91
2023-05-12T01:55:22.755Z,24.90
2023-05-12T01:56:22.740Z,24.91
2023-05-12T01:57:22.773Z,24.91
2023-05-12T01:58:22.799Z,24.91
2023-05-12T01:59:22.817Z,24.91
2023-05-12T02:00:22.883Z,24.91
2023-05-12T02:01:22.805Z,24.91
2023-05-12T02:02:22.792Z,24.91
2023-05-12T02:03:23.012Z,24.91
2023-05-12T02:04:22.798Z,24.91
2023-05-12T02:05:22.777Z,24.91
2023-05-12T02:06:22.783Z,24.91
2023-05-12T02:07:22.834Z,24.91
2023-05-12T02:08:22.808Z,24.91
2023-05-12T02:09:22.823Z,24.91
2023-05-12T02:10:22.907Z,24.91
2023-05-12T02:11:22.859Z,24.91
2023-05-12T02:12:22.857Z,24.91
2023-05-12T02:13:22.835Z,24.91
2023-05-12T02:14:22.874Z,24.90
2023-05-12T02:15:22.895Z,24.90
2023-05-12T02:16:22.933Z,24.90
2023-05-12T02:17:22.898Z,24.90
2023-05-12T02:18:22.945Z,24.91
2023-05-12T02:19:22.912Z,24.90
2023-05-12T02:20:22.879Z,24.90
2023-05-12T02:21:22.893Z,24.91
2023-05-12T02:22:22.906Z,24.91
2023-05-12T02:23:22.907Z,24.90
2023-05-12T02:24:22.941Z,24.91
2023-05-12T02:25:22.937Z,24.90
2023-05-12T02:26:22.930Z,24.90
2023-05-12T02:27:22.912Z,24.90
2023-05-12T02:28:22.926Z,24.90
2023-05-12T02:29:22.926Z,24.90
2023-05-12T02:30:23.064Z,24.90
2023-05-12T02:31:22.950Z,24.89
2023-05-12T02:32:22.938Z,24.89
2023-05-12T02:33:22.898Z,24.89
2023-05-12T02:34:22.961Z,24.89
2023-05-12T02:35:22.923Z,24.89
2023-05-12T02:36:22.965Z,24.90
2023-05-12T02:37:22.917Z,24.89
2023-05-12T02:38:22.944Z,24.89
2023-05-12T02:39:22.959Z,24.90
2023-05-12T02:40:22.952Z,24.89
2023-05-12T02:41:22.963Z,24.89
2023-05-12T02:42:22.965Z,24.90
2023-05-12T02:43:22.969Z,24.89
2023-05-12T02:44:22.992Z,24.90
2023-05-12T02:45:22.999Z,24.90
2023-05-12T02:46:23.044Z,24.90
2023-05-12T02:47:23.009Z,24.89
2023-05-12T02:48:22.960Z,24.90
2023-05-12T02:49:23.021Z,24.90
2023-05-12T02:50:23.135Z,24.89
2023-05-12T02:51:23.008Z,24.90
2023-05-12T02:52:22.991Z,24.90
2023-05-12T02:53:22.976Z,24.90
2023-05-12T02:54:22.994Z,24.90
2023-05-12T02:55:23.019Z,24.89
2023-05-12T02:56:23.048Z,24.90
2023-05-12T02:57:23.035Z,24.90
2023-05-12T02:58:23.014Z,24.89
2023-05-12T02:59:23.025Z,24.89
2023-05-12T03:00:23.023Z,24.88
2023-05-12T03:01:23.031Z,24.89
2023-05-12T03:02:23.165Z,24.89
2023-05-12T03:03:23.111Z,24.88
2023-05-12T03:04:23.044Z,24.89
2023-05-12T03:05:23.026Z,24.89
2023-05-12T03:06:23.081Z,24.89
2023-05-12T03:07:23.144Z,24.89
2023-05-12T03:08:23.174Z,24.88
2023-05-12T03:09:23.206Z,24.89
2023-05-12T03:10:23.346Z,24.89
2023-05-12T03:11:23.188Z,24.89
2023-05-12T03:12:23.233Z,24.89
2023-05-12T03:13:23.229Z,24.89
2023-05-12T03:14:23.240Z,24.88
2023-05-12T03:15:23.227Z,24.88
2023-05-12T03:16:23.232Z,24.88
2023-05-12T03:17:23.247Z,24.88
2023-05-12T03:18:23.267Z,24.88
2023-05-12T03:19:23.226Z,24.87
2023-05-12T03:20:23.362Z,24.88
2023-05-12T03:21:23.245Z,24.88
2023-05-12T03:22:23.241Z,24.88
2023-05-12T03:23:23.220Z,24.88
2023-05-12T03:24:23.226Z,24.88
2023-05-12T03:25:23.216Z,24.88
2023-05-12T03:26:23.232Z,24.89
2023-05-12T03:27:23.240Z,24.88
2023-05-12T03:28:23.253Z,24.88
2023-05-12T03:29:23.243Z,24.88
2023-05-12T03:30:23.251Z,24.87
2023-05-12T03:31:23.251Z,24.88
2023-05-12T03:32:23.261Z,24.87
2023-05-12T03:33:23.253Z,24.87
2023-05-12T03:34:23.282Z,24.88
2023-05-12T03:35:23.318Z,24.87
2023-05-12T03:36:23.280Z,24.88
2023-05-12T03:37:23.336Z,24.87
2023-05-12T03:38:23.299Z,24.87
2023-05-12T03:39:23.387Z,24.87
2023-05-12T03:40:23.468Z,24.87
2023-05-12T03:41:23.326Z,24.87
2023-05-12T03:42:23.295Z,24.87
2023-05-12T03:43:23.327Z,24.87
2023-05-12T03:44:23.329Z,24.87
2023-05-12T03:45:23.303Z,24.87
2023-05-12T03:46:23.377Z,24.87
2023-05-12T03:47:23.508Z,24.87
2023-05-12T03:48:23.365Z,24.87
2023-05-12T03:49:23.342Z,24.87
2023-05-12T03:50:23.329Z,24.87
2023-05-12T03:51:23.344Z,24.88
2023-05-12T03:52:23.355Z,24.87
2023-05-12T03:53:23.378Z,24.87
2023-05-12T03:54:23.333Z,24.86
2023-05-12T03:55:23.353Z,24.87
2023-05-12T03:56:23.366Z,24.86
2023-05-12T03:57:23.361Z,24.86
2023-05-12T03:58:23.327Z,24.86
2023-05-12T03:59:23.355Z,24.86
2023-05-12T04:00:23.353Z,24.86
2023-05-12T04:01:23.368Z,24.86
2023-05-12T04:02:23.465Z,24.86
2023-05-12T04:03:23.394Z,24.86
2023-05-12T04:04:23.370Z,24.86
2023-05-12T04:05:23.358Z,24.86
2023-05-12T04:06:23.345Z,24.86
2023-05-12T04:07:23.361Z,24.86
2023-05-12T04:08:23.364Z,24.86
2023-05-12T04:09:23.355Z,24.85
2023-05-12T04:10:23.335Z,24.86
2023-05-12T04:11:23.359Z,24.85
2023-05-12T04:12:23.366Z,24.85
2023-05-12T04:13:23.329Z,24.85
2023-05-12T04:14:31.821Z,24.85
2023-05-12T04:15:24.365Z,24.84
2023-05-12T04:16:23.365Z,24.85
2023-05-12T04:17:23.363Z,24.85
2023-05-12T04:18:23.335Z,24.85
2023-05-12T04:19:23.340Z,24.85
2023-05-12T04:20:23.309Z,24.86
2023-05-12T04:21:23.301Z,24.85
2023-05-12T04:22:25.612Z,24.86
2023-05-12T04:23:23.450Z,24.86
2023-05-12T04:24:23.453Z,24.85
2023-05-12T04:25:23.458Z,24.85
2023-05-12T04:26:23.471Z,24.85
2023-05-12T04:27:23.429Z,24.85
2023-05-12T04:28:23.430Z,24.85
2023-05-12T04:29:23.449Z,24.86
2023-05-12T04:30:23.440Z,24.85
2023-05-12T04:31:23.494Z,24.86
2023-05-12T04:32:23.478Z,24.86
2023-05-12T04:33:23.475Z,24.86
2023-05-12T04:34:23.471Z,24.86
2023-05-12T04:35:23.460Z,24.86
2023-05-12T04:36:23.434Z,24.86
2023-05-12T04:37:23.417Z,24.85
2023-05-12T04:38:23.429Z,24.85
2023-05-12T04:39:23.433Z,24.86
2023-05-12T04:40:23.583Z,24.86
2023-05-12T04:41:23.467Z,24.86
2023-05-12T04:42:23.505Z,24.87
2023-05-12T04:44:23.462Z,24.89
2023-05-12T04:45:23.517Z,24.89
2023-05-12T04:46:23.529Z,24.90
2023-05-12T04:47:23.495Z,24.90
2023-05-12T04:48:23.466Z,24.91
2023-05-12T04:49:23.475Z,24.92
2023-05-12T04:50:23.447Z,24.93
2023-05-12T04:51:23.459Z,24.94
2023-05-12T04:52:24.806Z,24.94
2023-05-12T04:53:23.403Z,24.94
2023-05-12T04:54:23.428Z,24.95
2023-05-12T04:55:23.419Z,24.96
2023-05-12T04:56:23.404Z,24.97
2023-05-12T04:57:23.389Z,24.99
2023-05-12T04:58:23.402Z,24.99
2023-05-12T04:59:23.368Z,25.00
2023-05-12T05:00:23.382Z,25.02
2023-05-12T05:01:30.976Z,25.03
2023-05-12T05:02:23.433Z,25.04
2023-05-12T05:03:23.448Z,25.05
2023-05-12T05:04:23.383Z,25.07
2023-05-12T05:05:23.473Z,25.08
2023-05-12T05:06:23.353Z,25.10
2023-05-12T05:07:23.334Z,25.10
2023-05-12T05:08:23.339Z,25.11
2023-05-12T05:09:23.332Z,25.13
2023-05-12T05:10:23.305Z,25.14
2023-05-12T05:11:23.302Z,25.16
2023-05-12T05:12:23.311Z,25.18
2023-05-12T05:13:23.280Z,25.19
2023-05-12T05:14:23.306Z,25.20
2023-05-12T05:15:23.321Z,25.22
2023-05-12T05:16:23.315Z,25.24
2023-05-12T05:17:23.305Z,25.25
2023-05-12T05:18:24.227Z,25.27
2023-05-12T05:19:35.592Z,25.27
2023-05-12T05:20:27.814Z,25.28
2023-05-12T05:21:23.364Z,25.29
2023-05-12T05:22:23.308Z,25.30
2023-05-12T05:23:23.325Z,25.32
2023-05-12T05:24:23.325Z,25.33
2023-05-12T05:25:23.322Z,25.33
2023-05-12T05:26:23.375Z,25.34
2023-05-12T05:27:23.337Z,25.35
2023-05-12T05:28:23.292Z,25.37
2023-05-12T05:29:23.265Z,25.37
2023-05-12T05:30:23.294Z,25.27
2023-05-12T05:31:23.331Z,25.02
2023-05-12T05:32:23.264Z,24.78
2023-05-12T05:33:23.275Z,24.52
2023-05-12T05:34:23.339Z,24.20
2023-05-12T05:35:23.469Z,24.00
2023-05-12T05:36:23.245Z,23.81
2023-05-12T05:37:23.229Z,23.69
2023-05-12T05:38:23.237Z,23.63
2023-05-12T05:39:23.230Z,23.56
2023-05-12T05:40:23.483Z,23.42
2023-05-12T05:41:23.217Z,23.29
2023-05-12T05:42:23.184Z,23.26
2023-05-12T05:43:23.248Z,23.27
2023-05-12T05:44:23.145Z,23.27
2023-05-12T05:45:23.491Z,23.27
2023-05-12T05:46:30.161Z,23.27
2023-05-12T05:47:23.200Z,23.31
2023-05-12T05:48:23.909Z,23.40
2023-05-12T05:49:23.191Z,23.50
2023-05-12T05:50:23.160Z,23.59
2023-05-12T05:51:23.149Z,23.68
2023-05-12T05:52:23.158Z,23.76
2023-05-12T05:53:23.107Z,23.85
2023-05-12T05:54:23.152Z,23.92
2023-05-12T05:55:23.098Z,23.98
2023-05-12T05:56:23.111Z,24.05
2023-05-12T05:57:23.127Z,24.11
2023-05-12T05:58:23.138Z,24.19
2023-05-12T05:59:23.114Z,24.28
2023-05-12T06:00:23.086Z,24.37
2023-05-12T06:01:23.067Z,24.47
2023-05-12T06:02:23.169Z,24.56
2023-05-12T06:03:23.081Z,24.65
2023-05-12T06:04:23.097Z,24.75
2023-05-12T06:05:23.113Z,24.84
2023-05-12T06:06:23.036Z,24.94
2023-05-12T06:07:23.028Z,25.03
2023-05-12T06:08:23.042Z,25.13
2023-05-12T06:09:22.999Z,25.20
2023-05-12T06:10:23.057Z,25.27
2023-05-12T06:11:23.002Z,25.34
2023-05-12T06:12:22.973Z,25.41
2023-05-12T06:13:23.010Z,25.47
2023-05-12T06:14:22.981Z,25.54
2023-05-12T06:15:23.188Z,25.59
2023-05-12T06:16:22.958Z,25.65
2023-05-12T06:17:22.936Z,25.68
2023-05-12T06:18:22.950Z,25.75
2023-05-12T06:19:22.946Z,25.79
2023-05-12T06:20:22.945Z,25.84
2023-05-12T06:21:22.922Z,25.88
2023-05-12T06:22:22.926Z,25.92
2023-05-12T06:23:22.954Z,25.96
2023-05-12T06:24:22.892Z,26.00
2023-05-12T06:25:23.136Z,26.05
2023-05-12T06:26:22.868Z,26.10
2023-05-12T06:27:22.906Z,26.15
2023-05-12T06:28:22.931Z,26.18
2023-05-12T06:29:23.014Z,26.20
2023-05-12T06:30:23.096Z,26.23
2023-05-12T06:31:23.117Z,26.28
2023-05-12T06:32:23.190Z,26.32
2023-05-12T06:33:23.214Z,26.36
2023-05-12T06:34:23.307Z,26.41
2023-05-12T06:35:23.326Z,26.45
2023-05-12T06:36:23.364Z,26.48
2023-05-12T06:37:23.434Z,26.50
2023-05-12T06:38:23.487Z,26.52
2023-05-12T06:39:23.513Z,26.53
2023-05-12T06:40:23.542Z,26.53
2023-05-12T06:41:24.052Z,26.55
2023-05-12T06:42:23.618Z,26.56
2023-05-12T06:43:23.685Z,26.55
2023-05-12T06:44:23.739Z,26.54
2023-05-12T06:45:23.881Z,26.55
2023-05-12T06:46:24.056Z,26.56
2023-05-12T06:47:23.918Z,26.57
2023-05-12T06:48:23.886Z,26.58
2023-05-12T06:49:23.939Z,26.59
2023-05-12T06:50:24.004Z,26.60
2023-05-12T06:51:24.563Z,26.60
2023-05-12T06:52:24.173Z,26.59
2023-05-12T06:53:25.578Z,26.58
2023-05-12T06:54:24.291Z,26.58
2023-05-12T06:55:24.317Z,26.57
2023-05-12T06:56:24.339Z,26.56
2023-05-12T06:57:24.422Z,26.56
2023-05-12T06:58:24.471Z,26.56
2023-05-12T06:59:24.521Z,26.54
2023-05-12T07:00:24.532Z,26.55
2023-05-12T07:01:24.593Z,26.54
2023-05-12T07:02:24.614Z,26.54
2023-05-12T07:03:24.670Z,26.53
2023-05-12T07:04:26.492Z,26.55
2023-05-12T07:05:25.683Z,26.56
2023-05-12T07:06:24.866Z,26.57
2023-05-12T07:07:24.928Z,26.58
2023-05-12T07:08:24.993Z,26.60
2023-05-12T07:09:25.038Z,26.61
2023-05-12T07:10:25.105Z,26.64
2023-05-12T07:11:25.158Z,26.63
2023-05-12T07:12:25.221Z,26.63
2023-05-12T07:13:25.278Z,26.65
2023-05-12T07:14:25.301Z,26.66
2023-05-12T07:15:25.376Z,26.67
2023-05-12T07:16:25.653Z,26.66
2023-05-12T07:17:25.537Z,26.64
2023-05-12T07:18:25.566Z,26.62
2023-05-12T07:19:25.526Z,26.62
2023-05-12T07:20:25.605Z,26.63
2023-05-12T07:21:25.637Z,26.64
2023-05-12T07:22:25.688Z,26.65
2023-05-12T07:23:25.733Z,26.67
2023-05-12T07:24:25.839Z,26.71
2023-05-12T07:25:25.912Z,26.75
2023-05-12T07:26:25.915Z,26.78
2023-05-12T07:27:25.933Z,26.80
2023-05-12T07:28:25.984Z,26.83
2023-05-12T07:29:26.054Z,26.83
2023-05-12T07:30:26.351Z,26.86
2023-05-12T07:31:26.606Z,26.88
2023-05-12T07:32:26.283Z,26.91
2023-05-12T07:33:26.217Z,26.90
2023-05-12T07:34:26.242Z,26.90
2023-05-12T07:35:26.305Z,26.92
2023-05-12T07:36:26.355Z,26.90
2023-05-12T07:37:26.412Z,26.89
2023-05-12T07:38:26.426Z,26.87
2023-05-12T07:39:26.479Z,26.86
2023-05-12T07:40:26.501Z,26.87
2023-05-12T07:41:26.547Z,26.89
2023-05-12T07:42:26.585Z,26.76
2023-05-12T07:43:26.677Z,26.54
2023-05-12T07:44:26.626Z,26.18
2023-05-12T07:45:26.687Z,25.64
2023-05-12T07:46:26.812Z,25.33
2023-05-12T07:47:26.890Z,25.25
2023-05-12T07:48:26.746Z,25.26
2023-05-12T07:49:26.757Z,25.32
2023-05-12T07:50:26.742Z,25.38
2023-05-12T07:51:26.773Z,25.47
2023-05-12T07:52:26.961Z,25.55
2023-05-12T07:53:26.907Z,25.64
2023-05-12T07:54:26.934Z,25.71
2023-05-12T07:55:26.985Z,25.79
2023-05-12T07:56:27.064Z,25.85
2023-05-12T07:57:27.032Z,25.91
2023-05-12T07:58:27.083Z,25.97
2023-05-12T07:59:27.149Z,26.00
2023-05-12T08:00:27.068Z,26.04
2023-05-12T08:01:27.525Z,26.07
2023-05-12T08:02:27.211Z,26.12
2023-05-12T08:03:27.266Z,26.15
2023-05-12T08:04:27.163Z,26.19
2023-05-12T08:05:27.133Z,26.23
2023-05-12T08:06:27.538Z,26.28
2023-05-12T08:07:27.136Z,26.30
2023-05-12T08:08:27.144Z,26.34
2023-05-12T08:09:27.190Z,26.37
2023-05-12T08:10:27.163Z,26.40
2023-05-12T08:11:27.574Z,26.41
2023-05-12T08:12:27.133Z,26.41
2023-05-12T08:13:27.132Z,26.44
2023-05-12T08:14:27.155Z,26.46
2023-05-12T08:15:27.194Z,26.49
2023-05-12T08:16:27.226Z,26.51
2023-05-12T08:17:29.253Z,26.54
2023-05-12T08:18:27.340Z,26.55
2023-05-12T08:19:27.223Z,26.57
2023-05-12T08:20:28.073Z,26.59
2023-05-12T08:21:27.256Z,26.61
2023-05-12T08:22:27.340Z,26.62
2023-05-12T08:23:27.401Z,26.65
2023-05-12T08:24:27.473Z,26.68
2023-05-12T08:25:27.484Z,26.71
2023-05-12T08:26:27.575Z,26.76
2023-05-12T08:27:27.605Z,26.78
2023-05-12T08:28:27.628Z,26.83
2023-05-12T08:29:27.700Z,26.86
2023-05-12T08:30:27.732Z,26.88
2023-05-12T08:31:28.095Z,26.88
2023-05-12T08:32:27.837Z,26.88
2023-05-12T08:33:27.845Z,26.84
2023-05-12T08:34:27.936Z,26.74
2023-05-12T08:35:27.886Z,26.63
2023-05-12T08:36:27.856Z,26.55
2023-05-12T08:37:27.916Z,26.51
2023-05-12T08:38:27.909Z,26.45
2023-05-12T08:39:27.955Z,26.42
2023-05-12T08:40:27.914Z,26.40
2023-05-12T08:41:27.921Z,26.38
2023-05-12T08:42:27.923Z,26.35
2023-05-12T08:43:27.925Z,26.35
2023-05-12T08:44:27.942Z,26.34
2023-05-12T08:45:28.525Z,26.33
2023-05-12T08:46:27.976Z,26.31
2023-05-12T08:47:28.568Z,26.29
2023-05-12T08:48:27.960Z,26.28
2023-05-12T08:49:27.971Z,26.26
2023-05-12T08:50:27.979Z,26.27
2023-05-12T08:51:28.121Z,26.25
2023-05-12T08:52:27.979Z,26.28
2023-05-12T08:53:28.059Z,26.31
2023-05-12T08:54:28.008Z,26.36
2023-05-12T08:55:31.832Z,26.40
2023-05-12T08:57:29.464Z,26.47
2023-05-12T08:58:40.398Z,26.49
2023-05-12T08:59:29.146Z,26.52
2023-05-12T09:00:28.049Z,26.54
2023-05-12T09:01:28.066Z,26.58
2023-05-12T09:02:32.727Z,26.61
2023-05-12T09:03:29.041Z,26.55
2023-05-12T09:04:27.984Z,26.44
2023-05-12T09:05:27.939Z,26.29
2023-05-12T09:06:27.959Z,26.09
2023-05-12T09:07:28.082Z,25.89
2023-05-12T09:08:27.956Z,25.78
2023-05-12T09:09:27.976Z,25.70
2023-05-12T09:10:35.106Z,25.62
2023-05-12T09:11:28.913Z,25.48
2023-05-12T09:12:27.908Z,25.38
2023-05-12T09:13:27.893Z,25.37
2023-05-12T09:14:27.910Z,25.34
2023-05-12T09:15:27.897Z,25.34
2023-05-12T09:16:27.880Z,25.42
2023-05-12T09:17:27.860Z,25.50
2023-05-12T09:18:27.920Z,25.59
2023-05-12T09:19:27.882Z,25.64
2023-05-12T09:20:31.843Z,25.72
2023-05-12T09:21:27.881Z,25.80
2023-05-12T09:22:27.875Z,25.88
2023-05-12T09:23:27.816Z,25.95
2023-05-12T09:24:27.890Z,26.03
2023-05-12T09:25:27.840Z,26.09
2023-05-12T09:26:27.824Z,26.16
2023-05-12T09:27:28.152Z,26.21
2023-05-12T09:28:27.781Z,26.23
2023-05-12T09:29:31.932Z,26.26
2023-05-12T09:30:27.835Z,26.31
2023-05-12T09:31:27.748Z,26.34
2023-05-12T09:32:27.762Z,26.38
2023-05-12T09:33:27.747Z,26.44
2023-05-12T09:34:27.736Z,26.51
2023-05-12T09:35:27.729Z,26.58
2023-05-12T09:36:27.770Z,26.66
2023-05-12T09:37:27.737Z,26.71
2023-05-12T09:38:27.746Z,26.75
2023-05-12T09:39:28.590Z,26.79
2023-05-12T09:40:27.714Z,26.81
2023-05-12T09:41:27.741Z,26.84
2023-05-12T09:42:28.092Z,26.86
2023-05-12T09:43:27.829Z,26.86
2023-05-12T09:44:27.869Z,26.82
2023-05-12T09:45:28.020Z,26.71
2023-05-12T09:46:28.088Z,26.58
2023-05-12T09:47:28.106Z,26.55
2023-05-12T09:48:28.127Z,26.57
2023-05-12T09:49:28.162Z,26.62
2023-05-12T09:50:32.495Z,26.66
2023-05-12T09:51:29.264Z,26.67
2023-05-12T09:52:28.609Z,26.71
2023-05-12T09:53:28.230Z,26.75
2023-05-12T09:54:28.354Z,26.78
2023-05-12T09:55:28.171Z,26.84
2023-05-12T09:56:28.200Z,26.89
2023-05-12T09:57:28.196Z,26.91
2023-05-12T09:58:28.150Z,26.97
2023-05-12T09:59:28.165Z,27.00
2023-05-12T10:00:41.159Z,27.01
2023-05-12T10:01:29.225Z,27.01
2023-05-12T10:02:28.656Z,27.02
2023-05-12T10:03:28.162Z,27.03
2023-05-12T10:04:28.177Z,27.07
2023-05-12T10:05:28.128Z,27.09
2023-05-12T10:06:28.180Z,27.11
2023-05-12T10:07:28.606Z,27.13
2023-05-12T10:08:28.097Z,27.15
2023-05-12T10:09:28.133Z,27.18
2023-05-12T10:10:28.153Z,27.18
2023-05-12T10:11:28.117Z,27.21
2023-05-12T10:12:28.184Z,27.21
2023-05-12T10:13:28.084Z,27.11
2023-05-12T10:14:28.118Z,27.01
2023-05-12T10:15:28.103Z,26.90
2023-05-12T10:16:28.118Z,26.79
2023-05-12T10:17:28.154Z,26.70
2023-05-12T10:18:28.076Z,26.53
2023-05-12T10:19:28.079Z,26.39
2023-05-12T10:20:28.084Z,26.31
2023-05-12T10:21:28.147Z,26.18
2023-05-12T10:22:28.205Z,26.04
2023-05-12T10:23:28.240Z,25.91
2023-05-12T10:24:28.286Z,25.57
2023-05-12T10:25:28.233Z,25.52
2023-05-12T10:26:28.301Z,25.49
2023-05-12T10:27:28.625Z,25.47
2023-05-12T10:28:28.399Z,25.43
2023-05-12T10:29:28.417Z,25.23
2023-05-12T10:30:28.510Z,25.21
2023-05-12T10:31:28.530Z,25.14
2023-05-12T10:32:28.614Z,25.03
2023-05-12T10:33:28.635Z,24.98
2023-05-12T10:34:28.578Z,24.93
2023-05-12T10:35:28.615Z,24.92
2023-05-12T10:36:28.652Z,24.93
2023-05-12T10:37:29.147Z,24.99
2023-05-12T10:38:28.634Z,25.05
2023-05-12T10:39:28.695Z,25.12
2023-05-12T10:40:28.720Z,25.18
2023-05-12T10:41:28.801Z,25.23
2023-05-12T10:42:28.824Z,25.28
2023-05-12T10:43:28.831Z,25.32
2023-05-12T10:44:28.811Z,25.37
2023-05-12T10:45:28.822Z,25.41
2023-05-12T10:46:28.901Z,25.44
2023-05-12T10:47:28.867Z,25.47
2023-05-12T10:48:28.968Z,25.50
2023-05-12T10:49:28.999Z,25.53
2023-05-12T10:50:29.062Z,25.55
2023-05-12T10:51:29.188Z,25.56
2023-05-12T10:52:29.165Z,25.58
2023-05-12T10:53:41.455Z,25.60
2023-05-12T10:54:30.286Z,25.60
2023-05-12T10:55:29.333Z,25.63
2023-05-12T10:56:29.467Z,25.63
2023-05-12T10:57:29.412Z,25.65
2023-05-12T10:58:29.873Z,25.65
2023-05-12T10:59:29.543Z,25.66
2023-05-12T11:00:29.494Z,25.66
2023-05-12T11:01:29.734Z,25.67
2023-05-12T11:02:30.812Z,25.68
2023-05-12T11:03:30.305Z,25.68
2023-05-12T11:04:29.696Z,25.70
2023-05-12T11:05:29.387Z,25.71
2023-05-12T11:06:29.253Z,25.72
2023-05-12T11:07:30.293Z,25.73
2023-05-12T11:08:30.184Z,25.73
2023-05-12T11:09:29.443Z,25.73
2023-05-12T11:10:29.360Z,25.73
2023-05-12T11:11:29.623Z,25.73
2023-05-12T11:12:29.113Z,25.74
2023-05-12T11:13:29.157Z,25.74
2023-05-12T11:14:29.107Z,25.74
2023-05-12T11:15:29.135Z,25.75
2023-05-12T11:16:29.161Z,25.75
2023-05-12T11:17:29.178Z,25.76
2023-05-12T11:18:29.052Z,25.76
2023-05-12T11:19:29.055Z,25.76
2023-05-12T11:20:30.890Z,25.77
2023-05-12T11:21:29.033Z,25.76
2023-05-12T11:22:29.066Z,25.76
2023-05-12T11:23:29.215Z,25.74
2023-05-12T11:24:29.035Z,25.74
2023-05-12T11:25:29.040Z,25.74
2023-05-12T11:26:28.995Z,25.74
2023-05-12T11:27:29.014Z,25.74
2023-05-12T11:28:29.183Z,25.75
2023-05-12T11:29:29.065Z,25.75
2023-05-12T11:30:29.078Z,25.77
2023-05-12T11:31:29.155Z,25.76
2023-05-12T11:32:29.193Z,25.77
2023-05-12T11:33:29.654Z,25.79
2023-05-12T11:34:29.212Z,25.80
2023-05-12T11:35:29.257Z,25.82
2023-05-12T11:36:29.335Z,25.83
2023-05-12T11:37:29.375Z,25.84
2023-05-12T11:38:29.630Z,25.84
2023-05-12T11:39:29.435Z,25.85
2023-05-12T11:40:29.496Z,25.86
2023-05-12T11:41:29.490Z,25.86
2023-05-12T11:42:29.565Z,25.86
2023-05-12T11:43:29.649Z,25.87
2023-05-12T11:44:29.574Z,25.88
2023-05-12T11:45:29.610Z,25.89
2023-05-12T11:46:29.940Z,25.90
2023-05-12T11:47:29.683Z,25.91
2023-05-12T11:48:29.663Z,25.92
2023-05-12T11:49:29.671Z,25.93
2023-05-12T11:50:29.704Z,25.93
2023-05-12T11:51:29.753Z,25.92
2023-05-12T11:52:29.736Z,25.92
2023-05-12T11:53:29.726Z,25.92
2023-05-12T11:54:29.732Z,25.93
2023-05-12T11:55:29.777Z,25.94
2023-05-12T11:56:29.774Z,25.94
2023-05-12T11:57:29.749Z,25.95
2023-05-12T11:58:29.773Z,25.95
2023-05-12T11:59:29.807Z,25.94
2023-05-12T12:00:29.791Z,25.95
2023-05-12T12:01:29.807Z,25.96
2023-05-12T12:02:29.918Z,25.98
2023-05-12T12:03:29.870Z,25.98
2023-05-12T12:04:29.857Z,25.98
2023-05-12T12:05:29.817Z,25.99
2023-05-12T12:06:29.816Z,25.98
2023-05-12T12:07:29.827Z,25.98
2023-05-12T12:08:29.837Z,25.97
2023-05-12T12:09:29.827Z,25.98
2023-05-12T12:10:29.816Z,25.97
2023-05-12T12:11:29.818Z,25.97
2023-05-12T12:12:29.837Z,25.97
2023-05-12T12:13:29.896Z,25.98
2023-05-12T12:14:29.947Z,25.97
2023-05-12T12:15:29.990Z,25.96
2023-05-12T12:16:30.022Z,25.95
2023-05-12T12:17:30.056Z,25.95
2023-05-12T12:18:30.078Z,25.95
2023-05-12T12:19:30.121Z,25.95
2023-05-12T12:20:30.151Z,25.93
2023-05-12T12:21:30.186Z,25.94
2023-05-12T12:22:30.183Z,25.93
2023-05-12T12:23:35.300Z,25.93
2023-05-12T12:24:31.229Z,25.92
2023-05-12T12:25:30.227Z,25.92
2023-05-12T12:26:30.213Z,25.92
2023-05-12T12:27:30.200Z,25.93
2023-05-12T12:28:30.185Z,25.94
2023-05-12T12:29:30.176Z,25.94
2023-05-12T12:30:30.207Z,25.95
2023-05-12T12:31:30.231Z,25.97
2023-05-12T12:32:30.174Z,25.97
2023-05-12T12:33:30.165Z,25.98
2023-05-12T12:34:30.177Z,25.98
2023-05-12T12:35:30.147Z,25.99
2023-05-12T12:36:30.136Z,26.00
2023-05-12T12:37:30.124Z,26.01
2023-05-12T12:38:30.145Z,26.01
2023-05-12T12:39:30.147Z,26.02
2023-05-12T12:40:30.103Z,26.03
2023-05-12T12:41:30.124Z,26.04
2023-05-12T12:42:30.119Z,26.04
2023-05-12T12:43:30.090Z,26.05
2023-05-12T12:44:30.143Z,26.05
2023-05-12T12:45:30.108Z,26.05
2023-05-12T12:46:30.135Z,26.05
2023-05-12T12:47:30.170Z,26.06
2023-05-12T12:48:30.073Z,26.07
2023-05-12T12:49:30.075Z,26.07
2023-05-12T12:50:30.091Z,26.07
2023-05-12T12:51:42.109Z,26.07
2023-05-12T12:52:31.044Z,26.07
2023-05-12T12:53:30.090Z,26.09
2023-05-12T12:54:30.044Z,26.10